sensor_id;sensor_type;location;lat;lon;timestamp;P1;durP1;ratioP1;P2;durP2;ratioP2
10805;SDS011;5455;53.224;6.000;2022-08-02T00:00:55;5.00;;;1.30;;
10805;SDS011;5455;53.224;6.000;2022-08-02T00:03:23;5.50;;;1.10;;
10805;SDS011;5455;53.224;6.000;2022-08-02T00:05:50;3.33;;;1.10;;
10805;SDS011;5455;53.224;6.000;2022-08-02T00:08:20;3.40;;;1.27;;
10805;SDS011;5455;53.224;6.000;2022-08-02T00:10:47;3.07;;;1.20;;
10805;SDS011;5455;53.224;6.000;2022-08-02T00:13:15;2.07;;;1.40;;
10805;SDS011;5455;53.224;6.000;2022-08-02T00:15:42;6.37;;;1.50;;
10805;SDS011;5455;53.224;6.000;2022-08-02T00:18:09;4.73;;;1.40;;
10805;SDS011;5455;53.224;6.000;2022-08-02T00:20:37;2.70;;;1.20;;
10805;SDS011;5455;53.224;6.000;2022-08-02T00:23:04;2.93;;;1.33;;
10805;SDS011;5455;53.224;6.000;2022-08-02T00:25:31;3.10;;;1.27;;
10805;SDS011;5455;53.224;6.000;2022-08-02T00:27:58;3.97;;;1.30;;
10805;SDS011;5455;53.224;6.000;2022-08-02T00:30:25;4.13;;;1.37;;
10805;SDS011;5455;53.224;6.000;2022-08-02T00:32:52;4.17;;;1.37;;
10805;SDS011;5455;53.224;6.000;2022-08-02T00:35:19;5.47;;;1.30;;
10805;SDS011;5455;53.224;6.000;2022-08-02T00:37:46;4.93;;;1.50;;
10805;SDS011;5455;53.224;6.000;2022-08-02T00:40:13;4.70;;;1.27;;
10805;SDS011;5455;53.224;6.000;2022-08-02T00:42:41;3.80;;;2.00;;
10805;SDS011;5455;53.224;6.000;2022-08-02T00:45:09;4.13;;;1.17;;
10805;SDS011;5455;53.224;6.000;2022-08-02T00:47:37;3.50;;;1.10;;
10805;SDS011;5455;53.224;6.000;2022-08-02T00:50:04;2.20;;;0.93;;
10805;SDS011;5455;53.224;6.000;2022-08-02T00:52:31;3.67;;;0.83;;
10805;SDS011;5455;53.224;6.000;2022-08-02T00:54:59;4.77;;;1.20;;
10805;SDS011;5455;53.224;6.000;2022-08-02T00:57:26;4.60;;;1.37;;
10805;SDS011;5455;53.224;6.000;2022-08-02T00:59:53;4.00;;;1.43;;
10805;SDS011;5455;53.224;6.000;2022-08-02T01:02:20;3.23;;;1.20;;
10805;SDS011;5455;53.224;6.000;2022-08-02T01:04:47;3.87;;;1.37;;
10805;SDS011;5455;53.224;6.000;2022-08-02T01:07:14;3.67;;;1.60;;
10805;SDS011;5455;53.224;6.000;2022-08-02T01:09:41;4.70;;;1.30;;
10805;SDS011;5455;53.224;6.000;2022-08-02T01:12:09;2.90;;;1.33;;
10805;SDS011;5455;53.224;6.000;2022-08-02T01:14:38;5.80;;;1.40;;
10805;SDS011;5455;53.224;6.000;2022-08-02T01:25:32;4.67;;;1.40;;
10805;SDS011;5455;53.224;6.000;2022-08-02T01:30:45;3.50;;;1.73;;
10805;SDS011;5455;53.224;6.000;2022-08-02T01:33:18;3.37;;;1.37;;
10805;SDS011;5455;53.224;6.000;2022-08-02T01:35:49;2.90;;;1.60;;
10805;SDS011;5455;53.224;6.000;2022-08-02T01:38:31;3.83;;;1.60;;
10805;SDS011;5455;53.224;6.000;2022-08-02T01:41:03;4.57;;;1.43;;
10805;SDS011;5455;53.224;6.000;2022-08-02T01:43:34;5.13;;;1.60;;
10805;SDS011;5455;53.224;6.000;2022-08-02T01:46:03;5.53;;;1.73;;
10805;SDS011;5455;53.224;6.000;2022-08-02T01:48:31;7.40;;;1.50;;
10805;SDS011;5455;53.224;6.000;2022-08-02T01:51:00;4.90;;;1.60;;
10805;SDS011;5455;53.224;6.000;2022-08-02T01:53:29;4.70;;;1.90;;
10805;SDS011;5455;53.224;6.000;2022-08-02T01:55:58;4.60;;;1.57;;
10805;SDS011;5455;53.224;6.000;2022-08-02T01:58:26;6.00;;;1.60;;
10805;SDS011;5455;53.224;6.000;2022-08-02T02:00:58;6.37;;;1.47;;
10805;SDS011;5455;53.224;6.000;2022-08-02T02:03:28;5.77;;;1.50;;
10805;SDS011;5455;53.224;6.000;2022-08-02T02:05:59;5.47;;;1.50;;
10805;SDS011;5455;53.224;6.000;2022-08-02T02:08:35;3.27;;;1.20;;
10805;SDS011;5455;53.224;6.000;2022-08-02T02:11:05;2.97;;;1.30;;
10805;SDS011;5455;53.224;6.000;2022-08-02T02:13:53;3.93;;;1.33;;
10805;SDS011;5455;53.224;6.000;2022-08-02T02:16:23;3.27;;;1.30;;
10805;SDS011;5455;53.224;6.000;2022-08-02T02:18:53;4.23;;;1.27;;
10805;SDS011;5455;53.224;6.000;2022-08-02T02:21:20;3.23;;;1.30;;
10805;SDS011;5455;53.224;6.000;2022-08-02T02:23:47;4.23;;;1.30;;
10805;SDS011;5455;53.224;6.000;2022-08-02T02:26:16;3.33;;;1.23;;
10805;SDS011;5455;53.224;6.000;2022-08-02T02:28:58;3.77;;;1.10;;
10805;SDS011;5455;53.224;6.000;2022-08-02T02:31:28;6.57;;;1.40;;
10805;SDS011;5455;53.224;6.000;2022-08-02T02:34:04;4.57;;;1.40;;
10805;SDS011;5455;53.224;6.000;2022-08-02T02:36:39;5.37;;;1.40;;
10805;SDS011;5455;53.224;6.000;2022-08-02T02:39:11;5.27;;;1.33;;
10805;SDS011;5455;53.224;6.000;2022-08-02T02:41:41;5.77;;;1.53;;
10805;SDS011;5455;53.224;6.000;2022-08-02T02:44:12;5.30;;;1.40;;
10805;SDS011;5455;53.224;6.000;2022-08-02T02:46:45;4.83;;;1.20;;
10805;SDS011;5455;53.224;6.000;2022-08-02T02:49:15;3.43;;;1.20;;
10805;SDS011;5455;53.224;6.000;2022-08-02T02:51:45;3.77;;;1.30;;
10805;SDS011;5455;53.224;6.000;2022-08-02T02:54:14;3.27;;;1.33;;
10805;SDS011;5455;53.224;6.000;2022-08-02T02:57:00;2.13;;;1.00;;
10805;SDS011;5455;53.224;6.000;2022-08-02T02:59:30;1.87;;;1.40;;
10805;SDS011;5455;53.224;6.000;2022-08-02T03:02:00;3.20;;;1.13;;
10805;SDS011;5455;53.224;6.000;2022-08-02T03:04:28;4.63;;;1.53;;
10805;SDS011;5455;53.224;6.000;2022-08-02T03:07:17;2.00;;;1.37;;
10805;SDS011;5455;53.224;6.000;2022-08-02T03:09:45;3.60;;;1.23;;
10805;SDS011;5455;53.224;6.000;2022-08-02T03:12:20;4.23;;;1.43;;
10805;SDS011;5455;53.224;6.000;2022-08-02T03:14:57;4.27;;;1.33;;
10805;SDS011;5455;53.224;6.000;2022-08-02T03:17:35;5.73;;;1.27;;
10805;SDS011;5455;53.224;6.000;2022-08-02T03:20:11;3.50;;;1.50;;
10805;SDS011;5455;53.224;6.000;2022-08-02T03:22:44;4.27;;;1.40;;
10805;SDS011;5455;53.224;6.000;2022-08-02T03:25:11;3.37;;;1.50;;
10805;SDS011;5455;53.224;6.000;2022-08-02T03:27:39;2.93;;;1.10;;
10805;SDS011;5455;53.224;6.000;2022-08-02T03:30:07;3.40;;;1.33;;
10805;SDS011;5455;53.224;6.000;2022-08-02T03:32:37;2.17;;;1.27;;
10805;SDS011;5455;53.224;6.000;2022-08-02T03:35:07;4.80;;;1.43;;
10805;SDS011;5455;53.224;6.000;2022-08-02T03:37:36;6.93;;;1.60;;
10805;SDS011;5455;53.224;6.000;2022-08-02T03:40:05;6.77;;;1.50;;
10805;SDS011;5455;53.224;6.000;2022-08-02T03:42:34;4.57;;;1.53;;
10805;SDS011;5455;53.224;6.000;2022-08-02T03:45:01;5.10;;;1.33;;
10805;SDS011;5455;53.224;6.000;2022-08-02T03:47:34;5.37;;;1.50;;
10805;SDS011;5455;53.224;6.000;2022-08-02T03:50:04;3.37;;;1.33;;
10805;SDS011;5455;53.224;6.000;2022-08-02T03:52:39;6.27;;;1.70;;
10805;SDS011;5455;53.224;6.000;2022-08-02T03:55:08;3.60;;;1.23;;
10805;SDS011;5455;53.224;6.000;2022-08-02T03:57:37;7.53;;;1.70;;
10805;SDS011;5455;53.224;6.000;2022-08-02T04:00:06;4.30;;;1.60;;
10805;SDS011;5455;53.224;6.000;2022-08-02T04:02:39;3.60;;;1.23;;
10805;SDS011;5455;53.224;6.000;2022-08-02T04:05:06;4.50;;;1.47;;
10805;SDS011;5455;53.224;6.000;2022-08-02T04:07:33;2.43;;;1.33;;
10805;SDS011;5455;53.224;6.000;2022-08-02T04:10:20;4.80;;;1.37;;
10805;SDS011;5455;53.224;6.000;2022-08-02T04:12:47;3.47;;;1.40;;
10805;SDS011;5455;53.224;6.000;2022-08-02T04:15:17;7.13;;;1.53;;
10805;SDS011;5455;53.224;6.000;2022-08-02T04:17:47;2.43;;;1.30;;
10805;SDS011;5455;53.224;6.000;2022-08-02T04:20:18;6.93;;;1.43;;
10805;SDS011;5455;53.224;6.000;2022-08-02T04:25:22;5.17;;;1.73;;
10805;SDS011;5455;53.224;6.000;2022-08-02T04:28:01;5.33;;;1.50;;
10805;SDS011;5455;53.224;6.000;2022-08-02T04:30:43;4.00;;;1.30;;
10805;SDS011;5455;53.224;6.000;2022-08-02T04:33:11;2.63;;;1.40;;
10805;SDS011;5455;53.224;6.000;2022-08-02T04:35:38;6.80;;;1.60;;
10805;SDS011;5455;53.224;6.000;2022-08-02T04:38:05;10.63;;;1.90;;
10805;SDS011;5455;53.224;6.000;2022-08-02T04:40:36;3.13;;;1.50;;
10805;SDS011;5455;53.224;6.000;2022-08-02T04:43:04;6.17;;;1.93;;
10805;SDS011;5455;53.224;6.000;2022-08-02T04:45:31;6.60;;;1.97;;
10805;SDS011;5455;53.224;6.000;2022-08-02T04:47:59;8.77;;;1.80;;
10805;SDS011;5455;53.224;6.000;2022-08-02T04:50:31;4.80;;;1.43;;
10805;SDS011;5455;53.224;6.000;2022-08-02T04:52:59;2.43;;;1.20;;
10805;SDS011;5455;53.224;6.000;2022-08-02T04:55:26;4.90;;;1.40;;
10805;SDS011;5455;53.224;6.000;2022-08-02T04:57:56;3.13;;;1.60;;
10805;SDS011;5455;53.224;6.000;2022-08-02T05:00:24;3.77;;;1.50;;
10805;SDS011;5455;53.224;6.000;2022-08-02T05:02:57;3.90;;;1.40;;
10805;SDS011;5455;53.224;6.000;2022-08-02T05:05:24;5.77;;;1.70;;
10805;SDS011;5455;53.224;6.000;2022-08-02T05:07:53;4.70;;;1.73;;
10805;SDS011;5455;53.224;6.000;2022-08-02T05:10:20;6.63;;;1.73;;
10805;SDS011;5455;53.224;6.000;2022-08-02T05:12:47;3.87;;;1.33;;
10805;SDS011;5455;53.224;6.000;2022-08-02T05:15:15;2.77;;;1.47;;
10805;SDS011;5455;53.224;6.000;2022-08-02T05:17:44;4.93;;;1.40;;
10805;SDS011;5455;53.224;6.000;2022-08-02T05:20:17;5.83;;;1.37;;
10805;SDS011;5455;53.224;6.000;2022-08-02T05:22:44;3.90;;;1.23;;
10805;SDS011;5455;53.224;6.000;2022-08-02T05:25:12;7.87;;;1.90;;
10805;SDS011;5455;53.224;6.000;2022-08-02T05:27:39;4.73;;;1.37;;
10805;SDS011;5455;53.224;6.000;2022-08-02T05:30:07;2.93;;;1.20;;
10805;SDS011;5455;53.224;6.000;2022-08-02T05:32:41;6.20;;;1.40;;
10805;SDS011;5455;53.224;6.000;2022-08-02T05:35:16;4.27;;;1.37;;
10805;SDS011;5455;53.224;6.000;2022-08-02T05:37:48;3.80;;;1.33;;
10805;SDS011;5455;53.224;6.000;2022-08-02T05:40:17;3.53;;;1.37;;
10805;SDS011;5455;53.224;6.000;2022-08-02T05:42:51;6.73;;;1.70;;
10805;SDS011;5455;53.224;6.000;2022-08-02T05:45:19;4.83;;;1.50;;
10805;SDS011;5455;53.224;6.000;2022-08-02T05:47:47;5.63;;;1.50;;
10805;SDS011;5455;53.224;6.000;2022-08-02T05:50:14;5.40;;;1.20;;
10805;SDS011;5455;53.224;6.000;2022-08-02T05:55:16;5.20;;;1.47;;
10805;SDS011;5455;53.224;6.000;2022-08-02T06:00:19;4.07;;;1.63;;
10805;SDS011;5455;53.224;6.000;2022-08-02T06:05:49;4.00;;;1.20;;
10805;SDS011;5455;53.224;6.000;2022-08-02T06:08:57;5.90;;;1.67;;
10805;SDS011;5455;53.224;6.000;2022-08-02T06:11:46;4.30;;;1.43;;
10805;SDS011;5455;53.224;6.000;2022-08-02T06:14:31;3.97;;;1.60;;
10805;SDS011;5455;53.224;6.000;2022-08-02T06:17:02;3.00;;;1.40;;
10805;SDS011;5455;53.224;6.000;2022-08-02T06:19:31;7.47;;;1.37;;
10805;SDS011;5455;53.224;6.000;2022-08-02T06:22:16;2.63;;;1.33;;
10805;SDS011;5455;53.224;6.000;2022-08-02T06:25:02;3.90;;;1.60;;
10805;SDS011;5455;53.224;6.000;2022-08-02T06:27:30;5.57;;;1.40;;
10805;SDS011;5455;53.224;6.000;2022-08-02T06:29:59;5.97;;;1.60;;
10805;SDS011;5455;53.224;6.000;2022-08-02T06:32:28;5.07;;;1.47;;
10805;SDS011;5455;53.224;6.000;2022-08-02T06:34:57;3.07;;;1.27;;
10805;SDS011;5455;53.224;6.000;2022-08-02T06:37:25;3.70;;;1.17;;
10805;SDS011;5455;53.224;6.000;2022-08-02T06:40:03;4.90;;;1.50;;
10805;SDS011;5455;53.224;6.000;2022-08-02T06:42:36;3.77;;;1.33;;
10805;SDS011;5455;53.224;6.000;2022-08-02T06:45:14;3.30;;;1.50;;
10805;SDS011;5455;53.224;6.000;2022-08-02T06:47:42;1.63;;;1.10;;
10805;SDS011;5455;53.224;6.000;2022-08-02T06:50:10;4.80;;;1.17;;
10805;SDS011;5455;53.224;6.000;2022-08-02T06:52:37;3.70;;;1.17;;
10805;SDS011;5455;53.224;6.000;2022-08-02T06:55:05;4.47;;;1.30;;
10805;SDS011;5455;53.224;6.000;2022-08-02T06:57:32;3.40;;;1.30;;
10805;SDS011;5455;53.224;6.000;2022-08-02T07:00:00;3.37;;;1.30;;
10805;SDS011;5455;53.224;6.000;2022-08-02T07:02:30;4.70;;;1.57;;
10805;SDS011;5455;53.224;6.000;2022-08-02T07:04:57;4.57;;;1.10;;
10805;SDS011;5455;53.224;6.000;2022-08-02T07:07:25;2.63;;;1.10;;
10805;SDS011;5455;53.224;6.000;2022-08-02T07:09:53;2.53;;;1.00;;
10805;SDS011;5455;53.224;6.000;2022-08-02T07:12:29;1.97;;;0.77;;
10805;SDS011;5455;53.224;6.000;2022-08-02T07:14:58;3.70;;;1.20;;
10805;SDS011;5455;53.224;6.000;2022-08-02T07:17:27;1.97;;;1.30;;
10805;SDS011;5455;53.224;6.000;2022-08-02T07:19:55;3.20;;;0.87;;
10805;SDS011;5455;53.224;6.000;2022-08-02T07:22:23;3.93;;;1.10;;
10805;SDS011;5455;53.224;6.000;2022-08-02T07:24:56;4.17;;;0.73;;
10805;SDS011;5455;53.224;6.000;2022-08-02T07:27:25;3.30;;;1.17;;
10805;SDS011;5455;53.224;6.000;2022-08-02T07:29:52;3.43;;;1.20;;
10805;SDS011;5455;53.224;6.000;2022-08-02T07:32:22;6.93;;;2.07;;
10805;SDS011;5455;53.224;6.000;2022-08-02T07:34:52;7.00;;;1.40;;
10805;SDS011;5455;53.224;6.000;2022-08-02T07:37:21;3.47;;;1.37;;
10805;SDS011;5455;53.224;6.000;2022-08-02T07:40:13;4.97;;;1.07;;
10805;SDS011;5455;53.224;6.000;2022-08-02T07:42:47;1.40;;;0.90;;
10805;SDS011;5455;53.224;6.000;2022-08-02T07:45:15;1.20;;;1.10;;
10805;SDS011;5455;53.224;6.000;2022-08-02T07:47:42;2.80;;;0.90;;
10805;SDS011;5455;53.224;6.000;2022-08-02T07:50:10;2.53;;;0.73;;
10805;SDS011;5455;53.224;6.000;2022-08-02T07:52:40;3.20;;;0.83;;
10805;SDS011;5455;53.224;6.000;2022-08-02T07:55:08;1.87;;;0.63;;
10805;SDS011;5455;53.224;6.000;2022-08-02T07:57:35;6.83;;;1.03;;
10805;SDS011;5455;53.224;6.000;2022-08-02T08:00:11;1.60;;;0.70;;
10805;SDS011;5455;53.224;6.000;2022-08-02T08:02:39;3.00;;;1.00;;
10805;SDS011;5455;53.224;6.000;2022-08-02T08:05:06;3.70;;;0.93;;
10805;SDS011;5455;53.224;6.000;2022-08-02T08:07:34;3.63;;;0.70;;
10805;SDS011;5455;53.224;6.000;2022-08-02T08:10:01;2.73;;;0.80;;
10805;SDS011;5455;53.224;6.000;2022-08-02T08:12:29;2.17;;;0.60;;
10805;SDS011;5455;53.224;6.000;2022-08-02T08:14:56;1.67;;;0.97;;
10805;SDS011;5455;53.224;6.000;2022-08-02T08:17:23;3.07;;;0.80;;
10805;SDS011;5455;53.224;6.000;2022-08-02T08:19:50;1.63;;;0.83;;
10805;SDS011;5455;53.224;6.000;2022-08-02T08:22:18;1.60;;;0.80;;
10805;SDS011;5455;53.224;6.000;2022-08-02T08:24:46;1.70;;;0.70;;
10805;SDS011;5455;53.224;6.000;2022-08-02T08:27:15;6.10;;;1.90;;
10805;SDS011;5455;53.224;6.000;2022-08-02T08:29:43;4.37;;;1.20;;
10805;SDS011;5455;53.224;6.000;2022-08-02T08:32:11;2.20;;;0.93;;
10805;SDS011;5455;53.224;6.000;2022-08-02T08:34:44;3.07;;;1.00;;
10805;SDS011;5455;53.224;6.000;2022-08-02T08:37:12;2.30;;;0.83;;
10805;SDS011;5455;53.224;6.000;2022-08-02T08:39:46;1.50;;;0.83;;
10805;SDS011;5455;53.224;6.000;2022-08-02T08:42:27;3.13;;;1.13;;
10805;SDS011;5455;53.224;6.000;2022-08-02T08:44:56;3.23;;;1.13;;
10805;SDS011;5455;53.224;6.000;2022-08-02T08:47:32;2.83;;;1.23;;
10805;SDS011;5455;53.224;6.000;2022-08-02T08:50:07;3.17;;;1.10;;
10805;SDS011;5455;53.224;6.000;2022-08-02T08:52:56;3.07;;;1.20;;
10805;SDS011;5455;53.224;6.000;2022-08-02T08:55:27;3.50;;;1.03;;
10805;SDS011;5455;53.224;6.000;2022-08-02T08:57:56;3.13;;;1.17;;
10805;SDS011;5455;53.224;6.000;2022-08-02T09:00:25;7.50;;;1.50;;
10805;SDS011;5455;53.224;6.000;2022-08-02T09:02:53;2.90;;;1.33;;
10805;SDS011;5455;53.224;6.000;2022-08-02T09:05:20;2.10;;;1.40;;
10805;SDS011;5455;53.224;6.000;2022-08-02T09:07:48;3.23;;;1.53;;
10805;SDS011;5455;53.224;6.000;2022-08-02T09:16:00;5.90;;;1.17;;
10805;SDS011;5455;53.224;6.000;2022-08-02T09:18:40;2.93;;;1.27;;
10805;SDS011;5455;53.224;6.000;2022-08-02T09:21:13;3.47;;;1.33;;
10805;SDS011;5455;53.224;6.000;2022-08-02T09:23:43;2.27;;;0.93;;
10805;SDS011;5455;53.224;6.000;2022-08-02T09:26:13;4.17;;;1.23;;
10805;SDS011;5455;53.224;6.000;2022-08-02T09:28:40;1.80;;;1.10;;
10805;SDS011;5455;53.224;6.000;2022-08-02T09:33:37;4.13;;;1.80;;
10805;SDS011;5455;53.224;6.000;2022-08-02T09:36:06;3.10;;;1.80;;
10805;SDS011;5455;53.224;6.000;2022-08-02T09:38:52;4.50;;;1.80;;
10805;SDS011;5455;53.224;6.000;2022-08-02T09:41:28;5.07;;;2.17;;
10805;SDS011;5455;53.224;6.000;2022-08-02T09:43:57;4.93;;;2.00;;
10805;SDS011;5455;53.224;6.000;2022-08-02T09:46:38;4.70;;;2.00;;
10805;SDS011;5455;53.224;6.000;2022-08-02T09:51:37;4.43;;;2.10;;
10805;SDS011;5455;53.224;6.000;2022-08-02T09:54:07;3.90;;;2.27;;
10805;SDS011;5455;53.224;6.000;2022-08-02T09:56:48;5.23;;;2.77;;
10805;SDS011;5455;53.224;6.000;2022-08-02T09:59:20;8.50;;;2.60;;
10805;SDS011;5455;53.224;6.000;2022-08-02T10:01:51;4.57;;;2.10;;
10805;SDS011;5455;53.224;6.000;2022-08-02T10:04:28;5.10;;;2.80;;
10805;SDS011;5455;53.224;6.000;2022-08-02T10:06:57;4.77;;;2.83;;
10805;SDS011;5455;53.224;6.000;2022-08-02T10:09:25;11.93;;;2.87;;
10805;SDS011;5455;53.224;6.000;2022-08-02T10:11:54;3.70;;;2.57;;
10805;SDS011;5455;53.224;6.000;2022-08-02T10:14:23;8.53;;;3.03;;
10805;SDS011;5455;53.224;6.000;2022-08-02T10:16:52;5.17;;;3.00;;
10805;SDS011;5455;53.224;6.000;2022-08-02T10:19:20;4.33;;;3.17;;
10805;SDS011;5455;53.224;6.000;2022-08-02T10:22:09;8.17;;;3.40;;
10805;SDS011;5455;53.224;6.000;2022-08-02T10:24:39;5.57;;;3.57;;
10805;SDS011;5455;53.224;6.000;2022-08-02T10:27:16;7.50;;;3.50;;
10805;SDS011;5455;53.224;6.000;2022-08-02T10:29:48;4.37;;;3.00;;
10805;SDS011;5455;53.224;6.000;2022-08-02T10:37:45;4.37;;;2.43;;
10805;SDS011;5455;53.224;6.000;2022-08-02T10:40:16;6.33;;;2.70;;
10805;SDS011;5455;53.224;6.000;2022-08-02T10:42:55;4.27;;;2.40;;
10805;SDS011;5455;53.224;6.000;2022-08-02T10:45:26;5.23;;;2.33;;
10805;SDS011;5455;53.224;6.000;2022-08-02T10:47:58;7.67;;;2.70;;
10805;SDS011;5455;53.224;6.000;2022-08-02T10:53:31;7.13;;;4.73;;
10805;SDS011;5455;53.224;6.000;2022-08-02T10:56:00;9.40;;;5.53;;
10805;SDS011;5455;53.224;6.000;2022-08-02T10:58:30;11.20;;;5.03;;
10805;SDS011;5455;53.224;6.000;2022-08-02T11:01:03;10.13;;;5.73;;
10805;SDS011;5455;53.224;6.000;2022-08-02T11:03:38;8.67;;;4.83;;
10805;SDS011;5455;53.224;6.000;2022-08-02T11:06:07;8.87;;;5.00;;
10805;SDS011;5455;53.224;6.000;2022-08-02T11:12:19;11.57;;;7.07;;
10805;SDS011;5455;53.224;6.000;2022-08-02T11:14:59;12.07;;;7.80;;
10805;SDS011;5455;53.224;6.000;2022-08-02T11:17:52;10.97;;;7.30;;
10805;SDS011;5455;53.224;6.000;2022-08-02T11:20:21;12.83;;;8.23;;
10805;SDS011;5455;53.224;6.000;2022-08-02T11:22:52;14.67;;;8.63;;
10805;SDS011;5455;53.224;6.000;2022-08-02T11:27:52;15.30;;;8.13;;
10805;SDS011;5455;53.224;6.000;2022-08-02T11:30:24;12.00;;;6.93;;
10805;SDS011;5455;53.224;6.000;2022-08-02T11:32:56;15.23;;;8.20;;
10805;SDS011;5455;53.224;6.000;2022-08-02T11:35:32;13.67;;;8.30;;
10805;SDS011;5455;53.224;6.000;2022-08-02T11:38:13;12.60;;;7.70;;
10805;SDS011;5455;53.224;6.000;2022-08-02T11:40:43;11.80;;;7.63;;
10805;SDS011;5455;53.224;6.000;2022-08-02T11:45:52;11.50;;;7.53;;
10805;SDS011;5455;53.224;6.000;2022-08-02T11:48:34;13.30;;;8.00;;
10805;SDS011;5455;53.224;6.000;2022-08-02T11:51:12;14.70;;;7.87;;
10805;SDS011;5455;53.224;6.000;2022-08-02T11:53:41;10.97;;;6.43;;
10805;SDS011;5455;53.224;6.000;2022-08-02T11:56:10;11.23;;;7.23;;
10805;SDS011;5455;53.224;6.000;2022-08-02T11:58:38;11.90;;;7.30;;
10805;SDS011;5455;53.224;6.000;2022-08-02T12:01:07;13.03;;;7.57;;
10805;SDS011;5455;53.224;6.000;2022-08-02T12:03:38;15.63;;;8.57;;
10805;SDS011;5455;53.224;6.000;2022-08-02T12:06:05;14.67;;;7.73;;
10805;SDS011;5455;53.224;6.000;2022-08-02T12:08:42;14.53;;;8.23;;
10805;SDS011;5455;53.224;6.000;2022-08-02T12:11:20;12.93;;;7.40;;
10805;SDS011;5455;53.224;6.000;2022-08-02T12:13:47;13.03;;;7.53;;
10805;SDS011;5455;53.224;6.000;2022-08-02T12:16:23;13.37;;;7.93;;
10805;SDS011;5455;53.224;6.000;2022-08-02T12:19:09;13.00;;;8.30;;
10805;SDS011;5455;53.224;6.000;2022-08-02T12:21:46;12.90;;;7.90;;
10805;SDS011;5455;53.224;6.000;2022-08-02T12:24:13;14.43;;;8.70;;
10805;SDS011;5455;53.224;6.000;2022-08-02T12:26:52;14.23;;;8.63;;
10805;SDS011;5455;53.224;6.000;2022-08-02T12:29:32;14.60;;;8.33;;
10805;SDS011;5455;53.224;6.000;2022-08-02T12:32:23;13.00;;;7.40;;
10805;SDS011;5455;53.224;6.000;2022-08-02T12:35:00;14.00;;;7.90;;
10805;SDS011;5455;53.224;6.000;2022-08-02T12:37:29;10.60;;;7.30;;
10805;SDS011;5455;53.224;6.000;2022-08-02T12:39:56;14.73;;;8.03;;
10805;SDS011;5455;53.224;6.000;2022-08-02T12:42:24;12.73;;;7.27;;
10805;SDS011;5455;53.224;6.000;2022-08-02T12:44:55;14.07;;;8.27;;
10805;SDS011;5455;53.224;6.000;2022-08-02T12:47:24;17.73;;;9.47;;
10805;SDS011;5455;53.224;6.000;2022-08-02T12:52:49;14.20;;;8.20;;
10805;SDS011;5455;53.224;6.000;2022-08-02T12:55:30;15.97;;;8.30;;
10805;SDS011;5455;53.224;6.000;2022-08-02T12:58:17;13.93;;;8.27;;
10805;SDS011;5455;53.224;6.000;2022-08-02T13:00:52;15.10;;;8.60;;
10805;SDS011;5455;53.224;6.000;2022-08-02T13:03:21;15.77;;;8.83;;
10805;SDS011;5455;53.224;6.000;2022-08-02T13:06:09;13.57;;;7.83;;
10805;SDS011;5455;53.224;6.000;2022-08-02T13:08:56;17.70;;;8.50;;
10805;SDS011;5455;53.224;6.000;2022-08-02T13:11:24;13.67;;;8.67;;
10805;SDS011;5455;53.224;6.000;2022-08-02T13:13:53;14.33;;;8.67;;
10805;SDS011;5455;53.224;6.000;2022-08-02T13:16:20;11.93;;;8.47;;
10805;SDS011;5455;53.224;6.000;2022-08-02T13:18:57;13.10;;;8.53;;
10805;SDS011;5455;53.224;6.000;2022-08-02T13:21:24;13.87;;;8.37;;
10805;SDS011;5455;53.224;6.000;2022-08-02T13:24:07;16.47;;;10.67;;
10805;SDS011;5455;53.224;6.000;2022-08-02T13:26:56;14.73;;;9.67;;
10805;SDS011;5455;53.224;6.000;2022-08-02T13:29:24;16.80;;;9.30;;
10805;SDS011;5455;53.224;6.000;2022-08-02T13:31:51;16.90;;;9.33;;
10805;SDS011;5455;53.224;6.000;2022-08-02T13:34:19;16.70;;;9.53;;
10805;SDS011;5455;53.224;6.000;2022-08-02T13:36:46;13.97;;;8.87;;
10805;SDS011;5455;53.224;6.000;2022-08-02T13:39:13;9.77;;;7.50;;
10805;SDS011;5455;53.224;6.000;2022-08-02T13:41:40;13.50;;;7.87;;
10805;SDS011;5455;53.224;6.000;2022-08-02T13:44:07;13.83;;;7.33;;
10805;SDS011;5455;53.224;6.000;2022-08-02T13:46:36;13.67;;;8.17;;
10805;SDS011;5455;53.224;6.000;2022-08-02T13:49:14;12.73;;;7.90;;
10805;SDS011;5455;53.224;6.000;2022-08-02T13:51:48;13.63;;;8.03;;
10805;SDS011;5455;53.224;6.000;2022-08-02T13:54:16;11.67;;;7.77;;
10805;SDS011;5455;53.224;6.000;2022-08-02T13:56:43;11.30;;;7.07;;
10805;SDS011;5455;53.224;6.000;2022-08-02T13:59:10;10.73;;;7.20;;
10805;SDS011;5455;53.224;6.000;2022-08-02T14:01:58;10.90;;;6.37;;
10805;SDS011;5455;53.224;6.000;2022-08-02T14:04:25;14.73;;;7.03;;
10805;SDS011;5455;53.224;6.000;2022-08-02T14:06:53;13.13;;;6.30;;
10805;SDS011;5455;53.224;6.000;2022-08-02T14:09:24;11.70;;;6.27;;
10805;SDS011;5455;53.224;6.000;2022-08-02T14:11:51;9.37;;;6.13;;
10805;SDS011;5455;53.224;6.000;2022-08-02T14:14:19;10.53;;;6.93;;
10805;SDS011;5455;53.224;6.000;2022-08-02T14:16:46;12.77;;;6.90;;
10805;SDS011;5455;53.224;6.000;2022-08-02T14:19:13;12.40;;;7.07;;
10805;SDS011;5455;53.224;6.000;2022-08-02T14:21:46;8.07;;;5.90;;
10805;SDS011;5455;53.224;6.000;2022-08-02T14:24:15;10.83;;;6.60;;
10805;SDS011;5455;53.224;6.000;2022-08-02T14:26:43;8.30;;;5.57;;
10805;SDS011;5455;53.224;6.000;2022-08-02T14:29:11;13.10;;;6.80;;
10805;SDS011;5455;53.224;6.000;2022-08-02T14:31:39;9.23;;;5.67;;
10805;SDS011;5455;53.224;6.000;2022-08-02T14:34:11;9.77;;;6.07;;
10805;SDS011;5455;53.224;6.000;2022-08-02T14:36:39;12.53;;;7.00;;
10805;SDS011;5455;53.224;6.000;2022-08-02T14:39:07;8.47;;;5.77;;
10805;SDS011;5455;53.224;6.000;2022-08-02T14:41:34;7.43;;;5.37;;
10805;SDS011;5455;53.224;6.000;2022-08-02T14:44:22;7.00;;;5.30;;
10805;SDS011;5455;53.224;6.000;2022-08-02T14:46:50;7.47;;;4.67;;
10805;SDS011;5455;53.224;6.000;2022-08-02T14:49:18;8.23;;;5.27;;
10805;SDS011;5455;53.224;6.000;2022-08-02T14:51:52;9.30;;;4.47;;
10805;SDS011;5455;53.224;6.000;2022-08-02T14:54:20;7.23;;;4.33;;
10805;SDS011;5455;53.224;6.000;2022-08-02T14:57:00;7.67;;;4.47;;
10805;SDS011;5455;53.224;6.000;2022-08-02T14:59:28;6.17;;;4.20;;
10805;SDS011;5455;53.224;6.000;2022-08-02T15:01:57;4.13;;;3.50;;
10805;SDS011;5455;53.224;6.000;2022-08-02T15:04:25;5.50;;;3.63;;
10805;SDS011;5455;53.224;6.000;2022-08-02T15:06:53;7.20;;;3.33;;
10805;SDS011;5455;53.224;6.000;2022-08-02T15:09:20;4.83;;;3.30;;
10805;SDS011;5455;53.224;6.000;2022-08-02T15:11:47;7.53;;;3.17;;
10805;SDS011;5455;53.224;6.000;2022-08-02T15:14:16;4.20;;;3.50;;
10805;SDS011;5455;53.224;6.000;2022-08-02T15:16:51;8.90;;;3.97;;
10805;SDS011;5455;53.224;6.000;2022-08-02T15:19:25;9.13;;;4.13;;
10805;SDS011;5455;53.224;6.000;2022-08-02T15:22:13;6.10;;;3.67;;
10805;SDS011;5455;53.224;6.000;2022-08-02T15:24:45;12.07;;;4.10;;
10805;SDS011;5455;53.224;6.000;2022-08-02T15:27:13;7.27;;;3.93;;
10805;SDS011;5455;53.224;6.000;2022-08-02T15:29:44;5.57;;;3.40;;
10805;SDS011;5455;53.224;6.000;2022-08-02T15:32:12;6.97;;;4.03;;
10805;SDS011;5455;53.224;6.000;2022-08-02T15:34:43;8.73;;;5.50;;
10805;SDS011;5455;53.224;6.000;2022-08-02T15:37:10;7.13;;;4.47;;
10805;SDS011;5455;53.224;6.000;2022-08-02T15:39:37;5.00;;;3.70;;
10805;SDS011;5455;53.224;6.000;2022-08-02T15:42:04;6.63;;;3.10;;
10805;SDS011;5455;53.224;6.000;2022-08-02T15:44:31;7.53;;;3.17;;
10805;SDS011;5455;53.224;6.000;2022-08-02T15:46:58;11.37;;;4.70;;
10805;SDS011;5455;53.224;6.000;2022-08-02T15:49:26;5.60;;;2.80;;
10805;SDS011;5455;53.224;6.000;2022-08-02T15:51:53;5.93;;;2.40;;
10805;SDS011;5455;53.224;6.000;2022-08-02T15:54:20;6.83;;;1.80;;
10805;SDS011;5455;53.224;6.000;2022-08-02T15:56:47;7.20;;;1.90;;
10805;SDS011;5455;53.224;6.000;2022-08-02T15:59:15;5.93;;;1.80;;
10805;SDS011;5455;53.224;6.000;2022-08-02T16:01:42;4.00;;;1.80;;
10805;SDS011;5455;53.224;6.000;2022-08-02T16:04:13;4.23;;;1.37;;
10805;SDS011;5455;53.224;6.000;2022-08-02T16:06:41;6.17;;;1.57;;
10805;SDS011;5455;53.224;6.000;2022-08-02T16:09:08;6.70;;;2.00;;
10805;SDS011;5455;53.224;6.000;2022-08-02T16:11:36;4.23;;;1.63;;
10805;SDS011;5455;53.224;6.000;2022-08-02T16:14:03;4.10;;;1.63;;